createdAt,value
2023-01-20T00:03:56.652Z,79.70
2023-01-20T00:08:25.628Z,79.60
2023-01-20T00:12:55.613Z,79.60
2023-01-20T00:17:25.680Z,79.70
2023-01-20T00:21:55.931Z,79.80
2023-01-20T00:26:28.489Z,79.90
2023-01-20T00:37:12.602Z,80.00
2023-01-20T00:41:42.541Z,80.20
2023-01-20T00:46:13.013Z,80.40
2023-01-20T00:50:18.703Z,80.50
2023-01-20T00:54:22.368Z,80.30
2023-01-20T00:58:51.631Z,80.20
2023-01-20T01:03:21.601Z,80.20
2023-01-20T01:07:50.578Z,80.20
2023-01-20T01:12:20.599Z,80.10
2023-01-20T01:16:50.573Z,79.90
2023-01-20T01:21:20.999Z,80.10
2023-01-20T01:25:50.625Z,80.30
2023-01-20T01:29:59.194Z,80.30
2023-01-20T01:34:30.521Z,80.30
2023-01-20T01:38:59.526Z,80.30
2023-01-20T01:43:30.722Z,80.30
2023-01-20T01:48:05.779Z,80.20
2023-01-20T02:13:10.002Z,80.50
2023-01-20T02:17:39.425Z,80.30
2023-01-20T02:22:03.369Z,80.30
2023-01-20T02:39:38.428Z,80.20
2023-01-20T02:43:56.657Z,80.10
2023-01-20T02:55:37.747Z,80.30
2023-01-20T03:06:42.638Z,80.60
2023-01-20T03:18:37.421Z,80.90
2023-01-20T03:23:07.852Z,80.80
2023-01-20T03:27:37.643Z,80.70
2023-01-20T03:32:09.764Z,80.50
2023-01-20T04:44:32.483Z,80.30
2023-01-20T04:49:02.501Z,80.60
2023-01-20T04:53:32.952Z,80.70
2023-01-20T04:58:02.511Z,80.70
2023-01-20T05:02:32.688Z,80.80
2023-01-20T05:07:02.559Z,80.70
2023-01-20T05:11:32.522Z,80.60
2023-01-20T05:16:03.203Z,80.40
2023-01-20T05:20:32.772Z,80.50
2023-01-20T05:25:02.534Z,80.60
2023-01-20T05:29:32.663Z,80.70
2023-01-20T05:34:02.682Z,80.60
2023-01-20T05:58:47.393Z,80.80
2023-01-20T06:03:44.613Z,80.90
2023-01-20T06:08:18.770Z,81.10
2023-01-20T06:12:54.450Z,81.20
2023-01-20T06:18:18.620Z,81.30
2023-01-20T06:22:26.158Z,81.50
2023-01-20T06:26:59.816Z,81.50
2023-01-20T06:31:29.693Z,81.40
2023-01-20T06:35:59.507Z,81.20
2023-01-20T06:40:04.682Z,80.90
2023-01-20T06:44:07.755Z,80.90
2023-01-20T06:48:10.534Z,80.90
2023-01-20T06:52:13.361Z,80.90
2023-01-20T06:56:17.259Z,80.70
2023-01-20T07:00:20.692Z,80.70
2023-01-20T07:04:40.751Z,80.70
2023-01-20T07:09:02.781Z,80.80
2023-01-20T07:13:05.689Z,80.70
2023-01-20T07:17:12.345Z,80.70
2023-01-20T07:21:18.000Z,80.70
2023-01-20T07:25:20.769Z,80.70
2023-01-20T07:29:23.685Z,80.70
2023-01-20T07:33:29.132Z,80.80
2023-01-20T07:37:34.084Z,80.80
2023-01-20T07:41:37.049Z,80.70
2023-01-20T07:45:39.896Z,80.80
2023-01-20T07:49:42.784Z,80.80
2023-01-20T07:53:51.003Z,81.00
2023-01-20T07:57:53.790Z,80.90
2023-01-20T08:01:56.683Z,80.80
2023-01-20T08:06:03.118Z,80.80
2023-01-20T08:10:06.487Z,81.00
2023-01-20T08:14:09.422Z,81.20
2023-01-20T08:18:12.216Z,81.30
2023-01-20T08:22:14.919Z,81.30
2023-01-20T08:26:19.562Z,81.30
2023-01-20T08:30:22.505Z,81.20
2023-01-20T08:34:25.350Z,81.40
2023-01-20T08:38:28.065Z,81.30
2023-01-20T08:42:31.500Z,81.10
2023-01-20T08:46:34.727Z,80.90
2023-01-20T08:50:37.672Z,80.80
2023-01-20T08:54:40.440Z,80.80
2023-01-20T08:58:43.323Z,80.80
2023-01-20T09:02:46.087Z,80.50
2023-01-20T09:06:50.488Z,80.60
2023-01-20T09:10:54.778Z,80.40
2023-01-20T09:14:57.536Z,80.50
2023-01-20T09:19:00.342Z,80.50
2023-01-20T09:23:03.623Z,80.60
2023-01-20T09:27:06.544Z,80.60
2023-01-20T09:31:10.311Z,80.70
2023-01-20T09:35:13.848Z,80.60
2023-01-20T09:39:36.292Z,80.50
2023-01-20T09:43:54.194Z,80.40
2023-01-20T09:48:15.491Z,80.20
2023-01-20T09:52:47.746Z,80.30
2023-01-20T09:56:53.398Z,80.30
2023-01-20T10:01:08.984Z,80.30
2023-01-20T10:05:14.048Z,80.10
2023-01-20T10:09:45.220Z,80.00
2023-01-20T10:14:09.300Z,79.80
2023-01-20T10:18:40.585Z,79.50
2023-01-20T10:22:50.849Z,79.10
2023-01-20T10:27:02.948Z,79.20
2023-01-20T10:31:06.030Z,78.80
2023-01-20T10:35:28.324Z,78.90
2023-01-20T10:39:48.242Z,78.80
2023-01-20T10:43:52.619Z,78.80
2023-01-20T10:48:18.582Z,78.90
2023-01-20T10:52:33.774Z,78.70
2023-01-20T10:56:57.313Z,77.90
2023-01-20T11:01:04.950Z,76.90
2023-01-20T11:05:22.613Z,77.10
2023-01-20T11:09:39.556Z,76.40
2023-01-20T11:13:42.359Z,75.90
2023-01-20T11:17:45.992Z,75.40
2023-01-20T11:21:49.056Z,74.60
2023-01-20T11:26:00.801Z,73.80
2023-01-20T11:30:08.162Z,73.10
2023-01-20T11:34:27.687Z,73.00
2023-01-20T11:38:51.360Z,72.90
2023-01-20T11:42:54.910Z,72.80
2023-01-20T11:47:16.523Z,73.10
2023-01-20T11:51:24.807Z,73.10
2023-01-20T11:55:27.813Z,72.10
2023-01-20T11:59:32.979Z,71.50
2023-01-20T12:04:00.732Z,71.60
2023-01-20T12:08:05.361Z,71.30
2023-01-20T12:12:34.215Z,71.20
2023-01-20T12:16:38.388Z,70.70
2023-01-20T12:20:55.279Z,71.10
2023-01-20T12:25:08.207Z,69.30
2023-01-20T12:29:26.095Z,69.00
2023-01-20T12:33:47.885Z,67.90
2023-01-20T12:37:57.044Z,68.70
2023-01-20T12:42:08.396Z,69.40
2023-01-20T12:46:20.217Z,69.00
2023-01-20T12:50:31.923Z,68.70
2023-01-20T12:54:53.369Z,68.70
2023-01-20T12:59:38.305Z,68.10
2023-01-20T13:03:53.120Z,68.00
2023-01-20T13:08:24.866Z,68.30
2023-01-20T13:12:33.630Z,67.80
2023-01-20T13:16:54.896Z,67.90
2023-01-20T13:20:57.680Z,67.50
2023-01-20T13:25:04.800Z,66.10
2023-01-20T13:29:22.590Z,64.00
2023-01-20T13:33:42.354Z,63.70
2023-01-20T13:38:02.030Z,63.60
2023-01-20T13:42:36.819Z,61.80
2023-01-20T13:46:45.266Z,62.70
2023-01-20T13:50:50.177Z,63.40
2023-01-20T13:54:53.085Z,63.70
2023-01-20T13:58:59.639Z,63.90
2023-01-20T14:03:26.138Z,63.50
2023-01-20T14:07:33.078Z,63.10
2023-01-20T14:11:35.769Z,62.70
2023-01-20T14:15:40.232Z,62.90
2023-01-20T14:19:48.504Z,62.90
2023-01-20T14:23:51.742Z,62.60
2023-01-20T14:27:54.505Z,62.90
2023-01-20T14:31:57.187Z,63.00
2023-01-20T14:36:00.009Z,63.10
2023-01-20T14:40:31.168Z,63.10
2023-01-20T14:44:45.348Z,62.90
2023-01-20T14:48:54.460Z,63.40
2023-01-20T14:52:57.600Z,63.10
2023-01-20T14:57:21.833Z,62.80
2023-01-20T15:01:26.763Z,62.70
2023-01-20T15:05:32.677Z,62.80
2023-01-20T15:09:35.581Z,63.00
2023-01-20T15:13:39.622Z,63.20
2023-01-20T15:18:17.079Z,63.40
2023-01-20T15:22:22.116Z,63.00
2023-01-20T15:26:24.878Z,63.20
2023-01-20T15:30:29.787Z,63.40
2023-01-20T15:34:33.461Z,63.20
2023-01-20T15:38:36.217Z,63.30
2023-01-20T15:42:38.907Z,62.90
2023-01-20T15:46:41.840Z,63.00
2023-01-20T15:50:45.870Z,63.10
2023-01-20T15:54:48.760Z,63.30
2023-01-20T15:58:52.165Z,63.30
2023-01-20T16:02:54.950Z,63.70
2023-01-20T16:06:57.753Z,64.00
2023-01-20T16:11:00.462Z,64.40
2023-01-20T16:15:03.311Z,64.70
2023-01-20T16:19:06.760Z,65.00
2023-01-20T16:23:09.636Z,65.40
2023-01-20T16:27:23.083Z,65.80
2023-01-20T16:31:27.492Z,66.10
2023-01-20T16:35:30.524Z,66.40
2023-01-20T16:39:33.906Z,66.50
2023-01-20T16:43:42.677Z,66.70
2023-01-20T16:47:45.356Z,66.90
2023-01-20T16:51:48.072Z,67.00
2023-01-20T16:55:50.832Z,67.20
2023-01-20T16:59:53.754Z,67.30
2023-01-20T17:04:01.419Z,67.40
2023-01-20T17:08:04.201Z,67.50
2023-01-20T17:12:07.497Z,67.70
2023-01-20T17:16:10.262Z,67.80
2023-01-20T17:20:13.141Z,67.90
2023-01-20T17:24:16.082Z,68.00
2023-01-20T17:28:18.866Z,68.00
2023-01-20T17:32:21.711Z,68.10
2023-01-20T17:36:24.462Z,68.10
2023-01-20T17:40:27.373Z,68.00
2023-01-20T17:44:30.227Z,68.00
2023-01-20T17:48:33.181Z,68.10
2023-01-20T17:52:36.284Z,68.10
2023-01-20T17:56:39.169Z,68.10
2023-01-20T18:00:41.932Z,68.10
2023-01-20T18:04:45.095Z,68.20
2023-01-20T18:08:59.232Z,68.20
2023-01-20T18:13:02.058Z,68.30
2023-01-20T18:17:04.972Z,68.30
2023-01-20T18:21:16.450Z,68.40
2023-01-20T18:25:19.329Z,68.40
2023-01-20T18:29:22.074Z,68.50
2023-01-20T18:33:25.523Z,68.50
2023-01-20T18:37:28.370Z,68.50
2023-01-20T18:41:34.044Z,68.60
2023-01-20T18:45:38.232Z,68.60
2023-01-20T18:49:41.135Z,68.70
2023-01-20T18:53:45.750Z,68.70
2023-01-20T18:57:48.620Z,68.80
2023-01-20T19:01:51.619Z,68.90
2023-01-20T19:05:54.324Z,69.00
2023-01-20T19:09:57.117Z,69.10
2023-01-20T19:13:59.972Z,69.20
2023-01-20T19:18:06.195Z,69.40
2023-01-20T19:22:09.243Z,69.50
2023-01-20T19:26:18.814Z,69.60
2023-01-20T19:30:22.157Z,69.70
2023-01-20T19:34:25.455Z,69.70
2023-01-20T19:38:28.800Z,69.80
2023-01-20T19:42:33.063Z,69.80
2023-01-20T19:46:39.178Z,69.90
2023-01-20T19:50:42.391Z,69.90
2023-01-20T19:54:45.417Z,69.90
2023-01-20T19:58:48.433Z,69.90
2023-01-20T20:02:54.792Z,69.90
2023-01-20T20:06:58.045Z,69.90
2023-01-20T20:11:01.908Z,69.80
2023-01-20T20:15:07.863Z,69.60
2023-01-20T20:19:31.132Z,69.50
2023-01-20T20:23:38.474Z,69.20
2023-01-20T20:27:42.147Z,68.80
2023-01-20T20:31:48.654Z,68.70
2023-01-20T20:35:52.924Z,68.50
2023-01-20T20:40:12.745Z,68.50
2023-01-20T20:44:38.673Z,68.50
2023-01-20T20:48:46.276Z,68.40
2023-01-20T20:52:50.799Z,68.40
2023-01-20T20:56:53.649Z,68.50
2023-01-20T21:00:56.768Z,68.10
2023-01-20T21:04:59.626Z,67.90
2023-01-20T21:09:03.045Z,67.80
2023-01-20T21:13:10.442Z,67.80
2023-01-20T21:17:14.310Z,68.00
2023-01-20T21:21:17.576Z,67.90
2023-01-20T21:25:24.199Z,67.80
2023-01-20T21:29:27.812Z,67.80
2023-01-20T21:33:37.443Z,67.80
2023-01-20T21:37:40.885Z,67.60
2023-01-20T21:41:44.279Z,67.50
2023-01-20T21:45:56.780Z,67.40
2023-01-20T21:50:18.699Z,67.10
2023-01-20T21:54:22.246Z,67.20
2023-01-20T21:58:25.460Z,67.30
2023-01-20T22:02:29.651Z,67.60
2023-01-20T22:06:32.858Z,67.70
2023-01-20T22:10:36.063Z,67.80
2023-01-20T22:14:40.050Z,67.90
2023-01-20T22:18:45.756Z,67.80
2023-01-20T22:22:48.537Z,67.70
2023-01-20T22:26:52.131Z,67.70
2023-01-20T22:30:55.067Z,67.60
2023-01-20T22:34:57.849Z,67.40
2023-01-20T22:39:00.946Z,67.40
2023-01-20T22:43:03.920Z,66.90
2023-01-20T22:47:10.117Z,66.60
2023-01-20T22:51:16.089Z,66.50
2023-01-20T22:55:18.785Z,65.40
2023-01-20T22:59:21.623Z,65.20
2023-01-20T23:03:24.414Z,65.40
2023-01-20T23:07:27.216Z,65.40
2023-01-20T23:11:30.212Z,65.30
2023-01-20T23:15:33.243Z,65.00
2023-01-20T23:19:36.213Z,64.90
